sensor_id;sensor_type;location;lat;lon;timestamp;P1;durP1;ratioP1;P2;durP2;ratioP2
69953;SDS011;57276;51.364;12.376;2022-12-07T00:03:45;12.98;;;5.00;;
69953;SDS011;57276;51.364;12.376;2022-12-07T00:09:47;12.60;;;5.20;;
69953;SDS011;57276;51.364;12.376;2022-12-07T00:15:49;15.47;;;5.70;;
69953;SDS011;57276;51.364;12.376;2022-12-07T00:21:50;12.13;;;5.30;;
69953;SDS011;57276;51.364;12.376;2022-12-07T00:27:52;12.97;;;5.23;;
69953;SDS011;57276;51.364;12.376;2022-12-07T00:33:55;11.82;;;5.35;;
69953;SDS011;57276;51.364;12.376;2022-12-07T00:39:56;13.70;;;5.72;;
69953;SDS011;57276;51.364;12.376;2022-12-07T00:45:58;14.37;;;5.83;;
69953;SDS011;57276;51.364;12.376;2022-12-07T00:51:59;13.48;;;5.70;;
69953;SDS011;57276;51.364;12.376;2022-12-07T00:58:01;14.73;;;6.00;;
69953;SDS011;57276;51.364;12.376;2022-12-07T01:04:03;16.83;;;6.13;;
69953;SDS011;57276;51.364;12.376;2022-12-07T01:10:05;16.65;;;6.85;;
69953;SDS011;57276;51.364;12.376;2022-12-07T01:16:07;12.90;;;5.97;;
69953;SDS011;57276;51.364;12.376;2022-12-07T01:22:09;16.05;;;5.85;;
69953;SDS011;57276;51.364;12.376;2022-12-07T01:28:10;15.93;;;5.23;;
69953;SDS011;57276;51.364;12.376;2022-12-07T01:34:12;14.77;;;5.78;;
69953;SDS011;57276;51.364;12.376;2022-12-07T01:40:13;14.73;;;5.93;;
69953;SDS011;57276;51.364;12.376;2022-12-07T01:46:15;14.23;;;5.80;;
69953;SDS011;57276;51.364;12.376;2022-12-07T01:52:21;16.63;;;5.95;;
69953;SDS011;57276;51.364;12.376;2022-12-07T01:58:24;16.80;;;6.50;;
69953;SDS011;57276;51.364;12.376;2022-12-07T02:04:26;14.23;;;5.82;;
69953;SDS011;57276;51.364;12.376;2022-12-07T02:10:28;12.70;;;5.28;;
69953;SDS011;57276;51.364;12.376;2022-12-07T02:29:20;12.17;;;5.53;;
69953;SDS011;57276;51.364;12.376;2022-12-07T02:41:44;13.52;;;5.43;;
69953;SDS011;57276;51.364;12.376;2022-12-07T02:47:48;15.37;;;5.63;;
69953;SDS011;57276;51.364;12.376;2022-12-07T02:53:52;15.57;;;6.43;;
69953;SDS011;57276;51.364;12.376;2022-12-07T02:59:58;17.80;;;6.17;;
69953;SDS011;57276;51.364;12.376;2022-12-07T03:12:10;13.70;;;5.57;;
69953;SDS011;57276;51.364;12.376;2022-12-07T03:18:13;12.33;;;5.00;;
69953;SDS011;57276;51.364;12.376;2022-12-07T03:24:18;14.65;;;4.68;;
69953;SDS011;57276;51.364;12.376;2022-12-07T03:30:22;12.13;;;4.53;;
69953;SDS011;57276;51.364;12.376;2022-12-07T03:42:28;10.65;;;4.47;;
69953;SDS011;57276;51.364;12.376;2022-12-07T03:48:35;10.33;;;3.97;;
69953;SDS011;57276;51.364;12.376;2022-12-07T03:54:43;12.48;;;4.82;;
69953;SDS011;57276;51.364;12.376;2022-12-07T04:00:46;12.37;;;4.77;;
69953;SDS011;57276;51.364;12.376;2022-12-07T04:06:48;12.73;;;4.60;;
69953;SDS011;57276;51.364;12.376;2022-12-07T04:12:50;13.07;;;4.60;;
69953;SDS011;57276;51.364;12.376;2022-12-07T04:18:51;10.97;;;4.77;;
69953;SDS011;57276;51.364;12.376;2022-12-07T04:24:53;13.65;;;4.93;;
69953;SDS011;57276;51.364;12.376;2022-12-07T04:30:54;11.67;;;4.13;;
69953;SDS011;57276;51.364;12.376;2022-12-07T04:36:56;10.35;;;3.90;;
69953;SDS011;57276;51.364;12.376;2022-12-07T04:42:58;11.73;;;4.75;;
69953;SDS011;57276;51.364;12.376;2022-12-07T04:48:59;10.97;;;4.47;;
69953;SDS011;57276;51.364;12.376;2022-12-07T04:55:01;11.35;;;4.30;;
69953;SDS011;57276;51.364;12.376;2022-12-07T05:01:02;10.27;;;4.37;;
69953;SDS011;57276;51.364;12.376;2022-12-07T05:07:04;11.05;;;4.10;;
69953;SDS011;57276;51.364;12.376;2022-12-07T05:13:06;15.18;;;4.57;;
69953;SDS011;57276;51.364;12.376;2022-12-07T05:19:07;11.43;;;4.60;;
69953;SDS011;57276;51.364;12.376;2022-12-07T05:25:09;10.80;;;4.28;;
69953;SDS011;57276;51.364;12.376;2022-12-07T05:31:11;12.70;;;4.67;;
69953;SDS011;57276;51.364;12.376;2022-12-07T05:37:12;10.65;;;4.53;;
69953;SDS011;57276;51.364;12.376;2022-12-07T05:43:14;9.73;;;4.07;;
69953;SDS011;57276;51.364;12.376;2022-12-07T05:49:15;10.90;;;4.47;;
69953;SDS011;57276;51.364;12.376;2022-12-07T05:55:17;12.70;;;5.10;;
69953;SDS011;57276;51.364;12.376;2022-12-07T06:01:19;11.90;;;4.90;;
69953;SDS011;57276;51.364;12.376;2022-12-07T06:07:20;11.10;;;5.13;;
69953;SDS011;57276;51.364;12.376;2022-12-07T06:13:22;12.35;;;5.22;;
69953;SDS011;57276;51.364;12.376;2022-12-07T06:19:23;15.17;;;5.17;;
69953;SDS011;57276;51.364;12.376;2022-12-07T06:25:25;14.63;;;6.13;;
69953;SDS011;57276;51.364;12.376;2022-12-07T06:31:26;12.47;;;5.67;;
69953;SDS011;57276;51.364;12.376;2022-12-07T06:37:28;14.75;;;6.10;;
69953;SDS011;57276;51.364;12.376;2022-12-07T06:43:30;12.70;;;5.85;;
69953;SDS011;57276;51.364;12.376;2022-12-07T06:49:31;15.70;;;6.80;;
69953;SDS011;57276;51.364;12.376;2022-12-07T06:55:33;18.20;;;7.43;;
69953;SDS011;57276;51.364;12.376;2022-12-07T07:01:34;14.17;;;6.37;;
69953;SDS011;57276;51.364;12.376;2022-12-07T07:07:36;19.58;;;7.70;;
69953;SDS011;57276;51.364;12.376;2022-12-07T07:13:58;17.08;;;7.13;;
69953;SDS011;57276;51.364;12.376;2022-12-07T07:20:03;18.77;;;7.30;;
69953;SDS011;57276;51.364;12.376;2022-12-07T07:26:05;17.48;;;8.25;;
69953;SDS011;57276;51.364;12.376;2022-12-07T07:32:07;17.60;;;7.40;;
69953;SDS011;57276;51.364;12.376;2022-12-07T07:38:09;19.25;;;7.53;;
69953;SDS011;57276;51.364;12.376;2022-12-07T07:44:10;15.13;;;7.20;;
69953;SDS011;57276;51.364;12.376;2022-12-07T07:50:12;18.20;;;8.03;;
69953;SDS011;57276;51.364;12.376;2022-12-07T07:56:13;17.70;;;7.53;;
69953;SDS011;57276;51.364;12.376;2022-12-07T08:02:16;17.70;;;7.03;;
69953;SDS011;57276;51.364;12.376;2022-12-07T08:08:18;17.50;;;7.07;;
69953;SDS011;57276;51.364;12.376;2022-12-07T08:14:19;17.20;;;7.53;;
69953;SDS011;57276;51.364;12.376;2022-12-07T08:20:21;19.50;;;7.57;;
69953;SDS011;57276;51.364;12.376;2022-12-07T08:26:23;18.05;;;7.88;;
69953;SDS011;57276;51.364;12.376;2022-12-07T08:32:25;18.63;;;7.57;;
69953;SDS011;57276;51.364;12.376;2022-12-07T08:38:26;18.75;;;6.75;;
69953;SDS011;57276;51.364;12.376;2022-12-07T08:44:32;16.67;;;6.97;;
69953;SDS011;57276;51.364;12.376;2022-12-07T08:50:34;17.53;;;6.80;;
69953;SDS011;57276;51.364;12.376;2022-12-07T08:56:37;15.85;;;6.22;;
69953;SDS011;57276;51.364;12.376;2022-12-07T09:02:39;15.47;;;5.87;;
69953;SDS011;57276;51.364;12.376;2022-12-07T09:08:42;13.85;;;5.35;;
69953;SDS011;57276;51.364;12.376;2022-12-07T09:14:44;13.30;;;5.32;;
69953;SDS011;57276;51.364;12.376;2022-12-07T09:20:46;12.60;;;4.97;;
69953;SDS011;57276;51.364;12.376;2022-12-07T09:26:47;11.93;;;4.40;;
69953;SDS011;57276;51.364;12.376;2022-12-07T09:32:49;11.80;;;4.60;;
69953;SDS011;57276;51.364;12.376;2022-12-07T09:38:51;12.20;;;5.50;;
69953;SDS011;57276;51.364;12.376;2022-12-07T09:44:52;16.92;;;4.88;;
69953;SDS011;57276;51.364;12.376;2022-12-07T09:50:54;13.53;;;4.80;;
69953;SDS011;57276;51.364;12.376;2022-12-07T09:56:58;11.80;;;4.57;;
69953;SDS011;57276;51.364;12.376;2022-12-07T10:03:00;13.07;;;5.07;;
69953;SDS011;57276;51.364;12.376;2022-12-07T10:09:08;10.73;;;4.68;;
69953;SDS011;57276;51.364;12.376;2022-12-07T10:15:10;14.82;;;5.68;;
69953;SDS011;57276;51.364;12.376;2022-12-07T10:21:13;14.23;;;5.50;;
69953;SDS011;57276;51.364;12.376;2022-12-07T10:27:17;18.73;;;6.20;;
69953;SDS011;57276;51.364;12.376;2022-12-07T10:39:30;10.20;;;4.55;;
69953;SDS011;57276;51.364;12.376;2022-12-07T10:52:22;11.87;;;4.40;;
69953;SDS011;57276;51.364;12.376;2022-12-07T10:58:45;11.82;;;4.50;;
69953;SDS011;57276;51.364;12.376;2022-12-07T11:05:02;11.93;;;4.90;;
69953;SDS011;57276;51.364;12.376;2022-12-07T11:17:26;9.57;;;3.55;;
69953;SDS011;57276;51.364;12.376;2022-12-07T11:30:13;10.73;;;3.90;;
69953;SDS011;57276;51.364;12.376;2022-12-07T11:42:39;11.75;;;4.05;;
69953;SDS011;57276;51.364;12.376;2022-12-07T11:49:00;8.45;;;3.80;;
69953;SDS011;57276;51.364;12.376;2022-12-07T11:55:04;11.63;;;4.53;;
69953;SDS011;57276;51.364;12.376;2022-12-07T12:07:26;12.73;;;4.27;;
69953;SDS011;57276;51.364;12.376;2022-12-07T12:13:56;9.98;;;3.67;;
69953;SDS011;57276;51.364;12.376;2022-12-07T12:26:26;7.80;;;3.37;;
69953;SDS011;57276;51.364;12.376;2022-12-07T12:32:41;8.35;;;3.20;;
69953;SDS011;57276;51.364;12.376;2022-12-07T12:45:04;6.20;;;2.40;;
69953;SDS011;57276;51.364;12.376;2022-12-07T12:51:36;6.07;;;2.33;;
69953;SDS011;57276;51.364;12.376;2022-12-07T12:57:37;7.13;;;2.03;;
69953;SDS011;57276;51.364;12.376;2022-12-07T13:03:39;4.82;;;1.70;;
69953;SDS011;57276;51.364;12.376;2022-12-07T13:09:52;6.53;;;1.53;;
69953;SDS011;57276;51.364;12.376;2022-12-07T13:15:56;5.75;;;1.55;;
69953;SDS011;57276;51.364;12.376;2022-12-07T13:28:35;4.93;;;1.30;;
69953;SDS011;57276;51.364;12.376;2022-12-07T13:34:40;3.90;;;1.30;;
69953;SDS011;57276;51.364;12.376;2022-12-07T13:40:42;4.90;;;1.20;;
69953;SDS011;57276;51.364;12.376;2022-12-07T13:46:49;6.15;;;1.10;;
69953;SDS011;57276;51.364;12.376;2022-12-07T13:52:59;5.00;;;1.17;;
69953;SDS011;57276;51.364;12.376;2022-12-07T13:59:01;4.10;;;1.30;;
69953;SDS011;57276;51.364;12.376;2022-12-07T14:05:36;6.93;;;1.60;;
69953;SDS011;57276;51.364;12.376;2022-12-07T14:11:30;7.37;;;1.77;;
69953;SDS011;57276;51.364;12.376;2022-12-07T14:17:33;6.07;;;1.60;;
69953;SDS011;57276;51.364;12.376;2022-12-07T14:23:35;4.38;;;1.50;;
69953;SDS011;57276;51.364;12.376;2022-12-07T14:29:37;5.43;;;1.60;;
69953;SDS011;57276;51.364;12.376;2022-12-07T14:35:38;4.55;;;1.45;;
69953;SDS011;57276;51.364;12.376;2022-12-07T14:41:41;3.73;;;1.30;;
69953;SDS011;57276;51.364;12.376;2022-12-07T14:47:52;6.22;;;1.52;;
69953;SDS011;57276;51.364;12.376;2022-12-07T14:54:15;5.40;;;1.65;;
69953;SDS011;57276;51.364;12.376;2022-12-07T15:00:19;4.80;;;1.30;;
69953;SDS011;57276;51.364;12.376;2022-12-07T15:06:21;7.43;;;1.52;;
69953;SDS011;57276;51.364;12.376;2022-12-07T15:12:23;5.13;;;1.17;;
69953;SDS011;57276;51.364;12.376;2022-12-07T15:18:26;4.53;;;1.30;;
69953;SDS011;57276;51.364;12.376;2022-12-07T15:24:27;5.05;;;1.50;;
69953;SDS011;57276;51.364;12.376;2022-12-07T15:30:29;4.10;;;1.30;;
69953;SDS011;57276;51.364;12.376;2022-12-07T15:36:31;5.93;;;1.25;;
69953;SDS011;57276;51.364;12.376;2022-12-07T15:42:33;4.87;;;1.20;;
69953;SDS011;57276;51.364;12.376;2022-12-07T15:48:34;3.38;;;1.08;;
69953;SDS011;57276;51.364;12.376;2022-12-07T15:54:36;4.57;;;1.40;;
69953;SDS011;57276;51.364;12.376;2022-12-07T16:00:38;3.93;;;1.17;;
69953;SDS011;57276;51.364;12.376;2022-12-07T16:06:39;4.78;;;1.23;;
69953;SDS011;57276;51.364;12.376;2022-12-07T16:12:41;4.47;;;1.40;;
69953;SDS011;57276;51.364;12.376;2022-12-07T16:18:43;6.72;;;1.63;;
69953;SDS011;57276;51.364;12.376;2022-12-07T16:24:45;6.78;;;1.80;;
69953;SDS011;57276;51.364;12.376;2022-12-07T16:30:46;6.40;;;2.00;;
69953;SDS011;57276;51.364;12.376;2022-12-07T16:36:48;8.15;;;2.28;;
69953;SDS011;57276;51.364;12.376;2022-12-07T16:43:06;6.77;;;2.23;;
69953;SDS011;57276;51.364;12.376;2022-12-07T16:49:12;9.95;;;2.80;;
69953;SDS011;57276;51.364;12.376;2022-12-07T16:55:14;8.35;;;2.45;;
69953;SDS011;57276;51.364;12.376;2022-12-07T17:01:19;7.43;;;2.50;;
69953;SDS011;57276;51.364;12.376;2022-12-07T17:07:23;8.07;;;2.80;;
69953;SDS011;57276;51.364;12.376;2022-12-07T17:13:24;6.00;;;2.30;;
69953;SDS011;57276;51.364;12.376;2022-12-07T17:19:44;8.48;;;2.20;;
69953;SDS011;57276;51.364;12.376;2022-12-07T17:25:49;8.35;;;2.40;;
69953;SDS011;57276;51.364;12.376;2022-12-07T17:31:50;7.87;;;2.23;;
69953;SDS011;57276;51.364;12.376;2022-12-07T17:37:52;5.28;;;2.40;;
69953;SDS011;57276;51.364;12.376;2022-12-07T17:43:54;8.83;;;2.23;;
69953;SDS011;57276;51.364;12.376;2022-12-07T17:49:55;9.02;;;2.30;;
69953;SDS011;57276;51.364;12.376;2022-12-07T17:56:02;6.25;;;2.20;;
69953;SDS011;57276;51.364;12.376;2022-12-07T18:02:23;7.93;;;2.47;;
69953;SDS011;57276;51.364;12.376;2022-12-07T18:08:25;6.72;;;2.50;;
69953;SDS011;57276;51.364;12.376;2022-12-07T18:14:27;8.80;;;3.17;;
69953;SDS011;57276;51.364;12.376;2022-12-07T18:20:28;9.30;;;3.22;;
69953;SDS011;57276;51.364;12.376;2022-12-07T18:26:31;6.55;;;3.05;;
69953;SDS011;57276;51.364;12.376;2022-12-07T18:32:33;6.70;;;2.17;;
69953;SDS011;57276;51.364;12.376;2022-12-07T18:38:34;10.13;;;2.75;;
69953;SDS011;57276;51.364;12.376;2022-12-07T18:44:36;8.80;;;2.83;;
69953;SDS011;57276;51.364;12.376;2022-12-07T18:50:38;10.75;;;2.58;;
69953;SDS011;57276;51.364;12.376;2022-12-07T18:56:39;5.80;;;2.67;;
69953;SDS011;57276;51.364;12.376;2022-12-07T19:02:41;7.73;;;2.70;;
69953;SDS011;57276;51.364;12.376;2022-12-07T19:08:42;7.25;;;2.55;;
69953;SDS011;57276;51.364;12.376;2022-12-07T19:14:44;7.60;;;2.63;;
69953;SDS011;57276;51.364;12.376;2022-12-07T19:20:45;5.82;;;2.70;;
69953;SDS011;57276;51.364;12.376;2022-12-07T19:26:47;6.25;;;2.60;;
69953;SDS011;57276;51.364;12.376;2022-12-07T19:32:49;7.87;;;2.47;;
69953;SDS011;57276;51.364;12.376;2022-12-07T19:38:50;7.00;;;2.65;;
69953;SDS011;57276;51.364;12.376;2022-12-07T19:44:52;7.93;;;2.53;;
69953;SDS011;57276;51.364;12.376;2022-12-07T19:50:53;6.38;;;2.50;;
69953;SDS011;57276;51.364;12.376;2022-12-07T19:56:55;9.10;;;2.90;;
69953;SDS011;57276;51.364;12.376;2022-12-07T20:02:57;6.63;;;3.07;;
69953;SDS011;57276;51.364;12.376;2022-12-07T20:08:59;12.27;;;3.47;;
69953;SDS011;57276;51.364;12.376;2022-12-07T20:15:00;7.23;;;2.87;;
69953;SDS011;57276;51.364;12.376;2022-12-07T20:21:02;7.57;;;2.83;;
69953;SDS011;57276;51.364;12.376;2022-12-07T20:27:04;7.28;;;3.10;;
69953;SDS011;57276;51.364;12.376;2022-12-07T20:33:06;7.90;;;2.77;;
69953;SDS011;57276;51.364;12.376;2022-12-07T20:39:08;7.57;;;2.95;;
69953;SDS011;57276;51.364;12.376;2022-12-07T20:45:09;7.57;;;3.40;;
69953;SDS011;57276;51.364;12.376;2022-12-07T20:51:12;10.50;;;3.80;;
69953;SDS011;57276;51.364;12.376;2022-12-07T20:57:14;9.07;;;2.97;;
69953;SDS011;57276;51.364;12.376;2022-12-07T21:03:15;8.90;;;3.27;;
69953;SDS011;57276;51.364;12.376;2022-12-07T21:09:17;7.80;;;3.35;;
69953;SDS011;57276;51.364;12.376;2022-12-07T21:15:20;9.40;;;3.23;;
69953;SDS011;57276;51.364;12.376;2022-12-07T21:21:21;8.05;;;3.58;;
69953;SDS011;57276;51.364;12.376;2022-12-07T21:27:23;7.15;;;3.10;;
69953;SDS011;57276;51.364;12.376;2022-12-07T21:33:24;9.73;;;3.50;;
69953;SDS011;57276;51.364;12.376;2022-12-07T21:39:26;8.52;;;3.47;;
69953;SDS011;57276;51.364;12.376;2022-12-07T21:45:28;9.13;;;3.43;;
69953;SDS011;57276;51.364;12.376;2022-12-07T21:51:29;7.45;;;2.50;;
69953;SDS011;57276;51.364;12.376;2022-12-07T21:57:31;7.60;;;2.90;;
69953;SDS011;57276;51.364;12.376;2022-12-07T22:03:33;9.53;;;2.60;;
69953;SDS011;57276;51.364;12.376;2022-12-07T22:09:34;8.90;;;3.22;;
69953;SDS011;57276;51.364;12.376;2022-12-07T22:15:36;7.70;;;2.57;;
69953;SDS011;57276;51.364;12.376;2022-12-07T22:21:40;7.63;;;2.90;;
69953;SDS011;57276;51.364;12.376;2022-12-07T22:27:42;6.70;;;2.63;;
69953;SDS011;57276;51.364;12.376;2022-12-07T22:33:43;7.23;;;3.03;;
69953;SDS011;57276;51.364;12.376;2022-12-07T22:39:45;6.57;;;2.78;;
69953;SDS011;57276;51.364;12.376;2022-12-07T22:45:56;7.70;;;2.90;;
69953;SDS011;57276;51.364;12.376;2022-12-07T22:51:58;8.50;;;3.10;;
69953;SDS011;57276;51.364;12.376;2022-12-07T22:57:59;10.15;;;2.92;;
69953;SDS011;57276;51.364;12.376;2022-12-07T23:04:01;7.43;;;2.87;;
69953;SDS011;57276;51.364;12.376;2022-12-07T23:10:03;9.13;;;3.50;;
69953;SDS011;57276;51.364;12.376;2022-12-07T23:16:10;7.67;;;2.90;;
69953;SDS011;57276;51.364;12.376;2022-12-07T23:22:12;8.65;;;2.78;;
69953;SDS011;57276;51.364;12.376;2022-12-07T23:28:13;7.50;;;3.25;;
69953;SDS011;57276;51.364;12.376;2022-12-07T23:34:15;9.97;;;3.27;;
69953;SDS011;57276;51.364;12.376;2022-12-07T23:40:16;7.47;;;3.08;;
69953;SDS011;57276;51.364;12.376;2022-12-07T23:46:18;11.70;;;3.33;;
69953;SDS011;57276;51.364;12.376;2022-12-07T23:52:21;8.45;;;3.17;;
69953;SDS011;57276;51.364;12.376;2022-12-07T23:58:22;12.35;;;3.17;;
